Thunder radar more information blitzortung!


Radar de pluja more information rain snow radar


Visita la nostra xarxa de llocs de meteo:

Template documentation
and downloads

And another site



No particular awareness of the weather is required.    There are no Weather-warnings

Pagina Historial Weather Underground text

Diari Resum Desembre 5, 2017 Unitats:  Tant    Imperial   Mètric
« Previous Dia
SegĂźent Dia »
Diari Setmana Mensual Anual Personalitzada
  Maxima: Minima: Media:
Temperatura: 50 °F /  10.0 °C 32 °F /  0.0 °C 43.9 °F /  6.6 °C
Punt de rosada: 33.1 °F /  0.6 °C 16.3 °F /  -8.7 °C 22.3 °F /  -5.4 °C
Humitat: 66 % 31 % 44 %
Wind Speed: 5.8 mph /  9.3 km/h - 1.6 mph /  2.5 km/h
RĂ fegues de vent: 5.8 mph /  9.3 km/h - -
Vent:- - ESE
Pression baro: 30.6 in /  1035.8 hPa 30.2 in /  1023.9 hPa -
Precipitacions: 0 in /  0.0 mm    
Historical Graphs
 
 
Dades de taula per Desembre 5, 2017
Temps Temperatura Punt de rosada Pression baro Vent Wind Speed RĂ fegues de vent Humitat Rainfall Rate (Hourly)
00:00 45.3 °F /  7.4 °C 16.3 °F /  -8.7 °C 30.2 in /  1023.9 hPa East 2 mph /  3.2 km/h 2 mph /  3.2 km/h 31 % 0 in /  0.0 mm
00:05 45.3 °F /  7.4 °C 16.3 °F /  -8.7 °C 30.2 in /  1023.9 hPa East 2 mph /  3.2 km/h 2 mph /  3.2 km/h 31 % 0 in /  0.0 mm
00:15 32.7 °F /  0.4 °C 18 °F /  -7.8 °C 30.6 in /  1034.8 hPa Calm     54 % 0 in /  0.0 mm
00:20 45.3 °F /  7.4 °C 16.3 °F /  -8.7 °C 30.2 in /  1023.9 hPa East 2 mph /  3.2 km/h 2 mph /  3.2 km/h 31 % 0 in /  0.0 mm
00:25 45.3 °F /  7.4 °C 16.3 °F /  -8.7 °C 30.2 in /  1023.9 hPa East 2 mph /  3.2 km/h 2 mph /  3.2 km/h 31 % 0 in /  0.0 mm
00:30 45.3 °F /  7.4 °C 16.3 °F /  -8.7 °C 30.2 in /  1023.9 hPa East 2 mph /  3.2 km/h 2 mph /  3.2 km/h 31 % 0 in /  0.0 mm
00:35 45.3 °F /  7.4 °C 16.3 °F /  -8.7 °C 30.2 in /  1023.9 hPa East 2 mph /  3.2 km/h 2 mph /  3.2 km/h 31 % 0 in /  0.0 mm
00:40 45.3 °F /  7.4 °C 16.3 °F /  -8.7 °C 30.2 in /  1023.9 hPa East 2 mph /  3.2 km/h 2 mph /  3.2 km/h 31 % 0 in /  0.0 mm
00:45 45.3 °F /  7.4 °C 16.3 °F /  -8.7 °C 30.2 in /  1023.9 hPa East 2 mph /  3.2 km/h 2 mph /  3.2 km/h 31 % 0 in /  0.0 mm
00:50 45.3 °F /  7.4 °C 16.3 °F /  -8.7 °C 30.2 in /  1023.9 hPa East 2 mph /  3.2 km/h 2 mph /  3.2 km/h 31 % 0 in /  0.0 mm
00:55 45.3 °F /  7.4 °C 16.3 °F /  -8.7 °C 30.2 in /  1023.9 hPa East 2 mph /  3.2 km/h 2 mph /  3.2 km/h 31 % 0 in /  0.0 mm
01:00 45.3 °F /  7.4 °C 16.3 °F /  -8.7 °C 30.2 in /  1023.9 hPa East 2 mph /  3.2 km/h 2 mph /  3.2 km/h 31 % 0 in /  0.0 mm
01:05 45.3 °F /  7.4 °C 16.3 °F /  -8.7 °C 30.2 in /  1023.9 hPa East 2 mph /  3.2 km/h 2 mph /  3.2 km/h 31 % 0 in /  0.0 mm
01:10 45.3 °F /  7.4 °C 16.3 °F /  -8.7 °C 30.2 in /  1023.9 hPa East 2 mph /  3.2 km/h 2 mph /  3.2 km/h 31 % 0 in /  0.0 mm
01:15 45.3 °F /  7.4 °C 16.3 °F /  -8.7 °C 30.2 in /  1023.9 hPa East 2 mph /  3.2 km/h 2 mph /  3.2 km/h 31 % 0 in /  0.0 mm
01:20 45.3 °F /  7.4 °C 16.3 °F /  -8.7 °C 30.2 in /  1023.9 hPa East 2 mph /  3.2 km/h 2 mph /  3.2 km/h 31 % 0 in /  0.0 mm
01:25 45.3 °F /  7.4 °C 16.3 °F /  -8.7 °C 30.2 in /  1023.9 hPa East 2 mph /  3.2 km/h 2 mph /  3.2 km/h 31 % 0 in /  0.0 mm
01:30 45.3 °F /  7.4 °C 16.3 °F /  -8.7 °C 30.2 in /  1023.9 hPa East 2 mph /  3.2 km/h 2 mph /  3.2 km/h 31 % 0 in /  0.0 mm
01:35 45.3 °F /  7.4 °C 16.3 °F /  -8.7 °C 30.2 in /  1023.9 hPa East 2 mph /  3.2 km/h 2 mph /  3.2 km/h 31 % 0 in /  0.0 mm
01:40 45.3 °F /  7.4 °C 16.3 °F /  -8.7 °C 30.2 in /  1023.9 hPa East 2 mph /  3.2 km/h 2 mph /  3.2 km/h 31 % 0 in /  0.0 mm
01:45 45.3 °F /  7.4 °C 16.3 °F /  -8.7 °C 30.2 in /  1023.9 hPa East 2 mph /  3.2 km/h 2 mph /  3.2 km/h 31 % 0 in /  0.0 mm
01:50 45.3 °F /  7.4 °C 16.3 °F /  -8.7 °C 30.2 in /  1023.9 hPa East 2 mph /  3.2 km/h 2 mph /  3.2 km/h 31 % 0 in /  0.0 mm
01:55 45.3 °F /  7.4 °C 16.3 °F /  -8.7 °C 30.2 in /  1023.9 hPa East 2 mph /  3.2 km/h 2 mph /  3.2 km/h 31 % 0 in /  0.0 mm
02:01 45.3 °F /  7.4 °C 16.3 °F /  -8.7 °C 30.2 in /  1023.9 hPa East 2 mph /  3.2 km/h 2 mph /  3.2 km/h 31 % 0 in /  0.0 mm
02:05 32.9 °F /  0.5 °C 19.2 °F /  -7.1 °C 30.6 in /  1035.8 hPa NW 2 mph /  3.2 km/h 2 mph /  3.2 km/h 57 % 0 in /  0.0 mm
02:10 45.3 °F /  7.4 °C 16.3 °F /  -8.7 °C 30.2 in /  1023.9 hPa East 2 mph /  3.2 km/h 2 mph /  3.2 km/h 31 % 0 in /  0.0 mm
02:15 45.3 °F /  7.4 °C 16.3 °F /  -8.7 °C 30.2 in /  1023.9 hPa East 2 mph /  3.2 km/h 2 mph /  3.2 km/h 31 % 0 in /  0.0 mm
02:20 45.3 °F /  7.4 °C 16.3 °F /  -8.7 °C 30.2 in /  1023.9 hPa East 2 mph /  3.2 km/h 2 mph /  3.2 km/h 31 % 0 in /  0.0 mm
02:25 33.3 °F /  0.7 °C 20.1 °F /  -6.6 °C 30.6 in /  1035.8 hPa NNW 1 mph /  1.6 km/h 2 mph /  3.2 km/h 58 % 0 in /  0.0 mm
02:30 45.3 °F /  7.4 °C 16.3 °F /  -8.7 °C 30.2 in /  1023.9 hPa East 2 mph /  3.2 km/h 2 mph /  3.2 km/h 31 % 0 in /  0.0 mm
02:35 33.8 °F /  1.0 °C 20.7 °F /  -6.3 °C 30.6 in /  1035.8 hPa North 1 mph /  1.6 km/h 2 mph /  3.2 km/h 58 % 0 in /  0.0 mm
02:40 45.3 °F /  7.4 °C 16.3 °F /  -8.7 °C 30.2 in /  1023.9 hPa East 2 mph /  3.2 km/h 2 mph /  3.2 km/h 31 % 0 in /  0.0 mm
02:45 45.3 °F /  7.4 °C 16.3 °F /  -8.7 °C 30.2 in /  1023.9 hPa East 2 mph /  3.2 km/h 2 mph /  3.2 km/h 31 % 0 in /  0.0 mm
02:50 45.3 °F /  7.4 °C 16.3 °F /  -8.7 °C 30.2 in /  1023.9 hPa East 2 mph /  3.2 km/h 2 mph /  3.2 km/h 31 % 0 in /  0.0 mm
02:55 45.3 °F /  7.4 °C 16.3 °F /  -8.7 °C 30.2 in /  1023.9 hPa East 2 mph /  3.2 km/h 2 mph /  3.2 km/h 31 % 0 in /  0.0 mm
03:00 45.3 °F /  7.4 °C 16.3 °F /  -8.7 °C 30.2 in /  1023.9 hPa East 2 mph /  3.2 km/h 2 mph /  3.2 km/h 31 % 0 in /  0.0 mm
03:05 45.3 °F /  7.4 °C 16.3 °F /  -8.7 °C 30.2 in /  1023.9 hPa East 2 mph /  3.2 km/h 2 mph /  3.2 km/h 31 % 0 in /  0.0 mm
03:10 45.3 °F /  7.4 °C 16.3 °F /  -8.7 °C 30.2 in /  1023.9 hPa East 2 mph /  3.2 km/h 2 mph /  3.2 km/h 31 % 0 in /  0.0 mm
03:15 45.3 °F /  7.4 °C 16.3 °F /  -8.7 °C 30.2 in /  1023.9 hPa East 2 mph /  3.2 km/h 2 mph /  3.2 km/h 31 % 0 in /  0.0 mm
03:20 45.3 °F /  7.4 °C 16.3 °F /  -8.7 °C 30.2 in /  1023.9 hPa East 2 mph /  3.2 km/h 2 mph /  3.2 km/h 31 % 0 in /  0.0 mm
03:25 45.3 °F /  7.4 °C 16.3 °F /  -8.7 °C 30.2 in /  1023.9 hPa East 2 mph /  3.2 km/h 2 mph /  3.2 km/h 31 % 0 in /  0.0 mm
03:30 45.3 °F /  7.4 °C 16.3 °F /  -8.7 °C 30.2 in /  1023.9 hPa East 2 mph /  3.2 km/h 2 mph /  3.2 km/h 31 % 0 in /  0.0 mm
03:35 45.3 °F /  7.4 °C 16.3 °F /  -8.7 °C 30.2 in /  1023.9 hPa East 2 mph /  3.2 km/h 2 mph /  3.2 km/h 31 % 0 in /  0.0 mm
03:40 45.3 °F /  7.4 °C 16.3 °F /  -8.7 °C 30.2 in /  1023.9 hPa East 2 mph /  3.2 km/h 2 mph /  3.2 km/h 31 % 0 in /  0.0 mm
03:45 45.3 °F /  7.4 °C 16.3 °F /  -8.7 °C 30.2 in /  1023.9 hPa East 2 mph /  3.2 km/h 2 mph /  3.2 km/h 31 % 0 in /  0.0 mm
03:50 45.3 °F /  7.4 °C 16.3 °F /  -8.7 °C 30.2 in /  1023.9 hPa East 2 mph /  3.2 km/h 2 mph /  3.2 km/h 31 % 0 in /  0.0 mm
03:55 45.3 °F /  7.4 °C 16.3 °F /  -8.7 °C 30.2 in /  1023.9 hPa East 2 mph /  3.2 km/h 2 mph /  3.2 km/h 31 % 0 in /  0.0 mm
04:05 45.3 °F /  7.4 °C 16.3 °F /  -8.7 °C 30.2 in /  1023.9 hPa East 2 mph /  3.2 km/h 2 mph /  3.2 km/h 31 % 0 in /  0.0 mm
04:10 45.3 °F /  7.4 °C 16.3 °F /  -8.7 °C 30.2 in /  1023.9 hPa East 2 mph /  3.2 km/h 2 mph /  3.2 km/h 31 % 0 in /  0.0 mm
04:15 45.3 °F /  7.4 °C 16.3 °F /  -8.7 °C 30.2 in /  1023.9 hPa East 2 mph /  3.2 km/h 2 mph /  3.2 km/h 31 % 0 in /  0.0 mm
04:20 45.3 °F /  7.4 °C 16.3 °F /  -8.7 °C 30.2 in /  1023.9 hPa East 2 mph /  3.2 km/h 2 mph /  3.2 km/h 31 % 0 in /  0.0 mm
04:25 45.3 °F /  7.4 °C 16.3 °F /  -8.7 °C 30.2 in /  1023.9 hPa East 2 mph /  3.2 km/h 2 mph /  3.2 km/h 31 % 0 in /  0.0 mm
04:30 45.3 °F /  7.4 °C 16.3 °F /  -8.7 °C 30.2 in /  1023.9 hPa East 2 mph /  3.2 km/h 2 mph /  3.2 km/h 31 % 0 in /  0.0 mm
04:35 45.3 °F /  7.4 °C 16.3 °F /  -8.7 °C 30.2 in /  1023.9 hPa East 2 mph /  3.2 km/h 2 mph /  3.2 km/h 31 % 0 in /  0.0 mm
04:40 45.3 °F /  7.4 °C 16.3 °F /  -8.7 °C 30.2 in /  1023.9 hPa East 2 mph /  3.2 km/h 2 mph /  3.2 km/h 31 % 0 in /  0.0 mm
04:45 45.3 °F /  7.4 °C 16.3 °F /  -8.7 °C 30.2 in /  1023.9 hPa East 2 mph /  3.2 km/h 2 mph /  3.2 km/h 31 % 0 in /  0.0 mm
04:50 45.3 °F /  7.4 °C 16.3 °F /  -8.7 °C 30.2 in /  1023.9 hPa East 2 mph /  3.2 km/h 2 mph /  3.2 km/h 31 % 0 in /  0.0 mm
04:55 45.3 °F /  7.4 °C 16.3 °F /  -8.7 °C 30.2 in /  1023.9 hPa East 2 mph /  3.2 km/h 2 mph /  3.2 km/h 31 % 0 in /  0.0 mm
05:00 45.3 °F /  7.4 °C 16.3 °F /  -8.7 °C 30.2 in /  1023.9 hPa East 2 mph /  3.2 km/h 2 mph /  3.2 km/h 31 % 0 in /  0.0 mm
05:05 45.3 °F /  7.4 °C 16.3 °F /  -8.7 °C 30.2 in /  1023.9 hPa East 2 mph /  3.2 km/h 2 mph /  3.2 km/h 31 % 0 in /  0.0 mm
05:10 45.3 °F /  7.4 °C 16.3 °F /  -8.7 °C 30.2 in /  1023.9 hPa East 2 mph /  3.2 km/h 2 mph /  3.2 km/h 31 % 0 in /  0.0 mm
05:15 45.3 °F /  7.4 °C 16.3 °F /  -8.7 °C 30.2 in /  1023.9 hPa East 2 mph /  3.2 km/h 2 mph /  3.2 km/h 31 % 0 in /  0.0 mm
05:20 45.3 °F /  7.4 °C 16.3 °F /  -8.7 °C 30.2 in /  1023.9 hPa East 2 mph /  3.2 km/h 2 mph /  3.2 km/h 31 % 0 in /  0.0 mm
05:25 45.3 °F /  7.4 °C 16.3 °F /  -8.7 °C 30.2 in /  1023.9 hPa East 2 mph /  3.2 km/h 2 mph /  3.2 km/h 31 % 0 in /  0.0 mm
05:35 45.3 °F /  7.4 °C 16.3 °F /  -8.7 °C 30.2 in /  1023.9 hPa East 2 mph /  3.2 km/h 2 mph /  3.2 km/h 31 % 0 in /  0.0 mm
05:40 45.3 °F /  7.4 °C 16.3 °F /  -8.7 °C 30.2 in /  1023.9 hPa East 2 mph /  3.2 km/h 2 mph /  3.2 km/h 31 % 0 in /  0.0 mm
05:45 45.3 °F /  7.4 °C 16.3 °F /  -8.7 °C 30.2 in /  1023.9 hPa East 2 mph /  3.2 km/h 2 mph /  3.2 km/h 31 % 0 in /  0.0 mm
05:50 45.3 °F /  7.4 °C 16.3 °F /  -8.7 °C 30.2 in /  1023.9 hPa East 2 mph /  3.2 km/h 2 mph /  3.2 km/h 31 % 0 in /  0.0 mm
05:55 45.3 °F /  7.4 °C 16.3 °F /  -8.7 °C 30.2 in /  1023.9 hPa East 2 mph /  3.2 km/h 2 mph /  3.2 km/h 31 % 0 in /  0.0 mm
06:05 45.3 °F /  7.4 °C 16.3 °F /  -8.7 °C 30.2 in /  1023.9 hPa East 2 mph /  3.2 km/h 2 mph /  3.2 km/h 31 % 0 in /  0.0 mm
06:10 45.3 °F /  7.4 °C 16.3 °F /  -8.7 °C 30.2 in /  1023.9 hPa East 2 mph /  3.2 km/h 2 mph /  3.2 km/h 31 % 0 in /  0.0 mm
06:15 45.3 °F /  7.4 °C 16.3 °F /  -8.7 °C 30.2 in /  1023.9 hPa East 2 mph /  3.2 km/h 2 mph /  3.2 km/h 31 % 0 in /  0.0 mm
06:20 45.3 °F /  7.4 °C 16.3 °F /  -8.7 °C 30.2 in /  1023.9 hPa East 2 mph /  3.2 km/h 2 mph /  3.2 km/h 31 % 0 in /  0.0 mm
06:25 45.3 °F /  7.4 °C 16.3 °F /  -8.7 °C 30.2 in /  1023.9 hPa East 2 mph /  3.2 km/h 2 mph /  3.2 km/h 31 % 0 in /  0.0 mm
06:30 45.3 °F /  7.4 °C 16.3 °F /  -8.7 °C 30.2 in /  1023.9 hPa East 2 mph /  3.2 km/h 2 mph /  3.2 km/h 31 % 0 in /  0.0 mm
06:35 45.3 °F /  7.4 °C 16.3 °F /  -8.7 °C 30.2 in /  1023.9 hPa East 2 mph /  3.2 km/h 2 mph /  3.2 km/h 31 % 0 in /  0.0 mm
06:40 45.3 °F /  7.4 °C 16.3 °F /  -8.7 °C 30.2 in /  1023.9 hPa East 2 mph /  3.2 km/h 2 mph /  3.2 km/h 31 % 0 in /  0.0 mm
06:45 45.3 °F /  7.4 °C 16.3 °F /  -8.7 °C 30.2 in /  1023.9 hPa East 2 mph /  3.2 km/h 2 mph /  3.2 km/h 31 % 0 in /  0.0 mm
06:50 45.3 °F /  7.4 °C 16.3 °F /  -8.7 °C 30.2 in /  1023.9 hPa East 2 mph /  3.2 km/h 2 mph /  3.2 km/h 31 % 0 in /  0.0 mm
06:55 45.3 °F /  7.4 °C 16.3 °F /  -8.7 °C 30.2 in /  1023.9 hPa East 2 mph /  3.2 km/h 2 mph /  3.2 km/h 31 % 0 in /  0.0 mm
07:00 45.3 °F /  7.4 °C 16.3 °F /  -8.7 °C 30.2 in /  1023.9 hPa East 2 mph /  3.2 km/h 2 mph /  3.2 km/h 31 % 0 in /  0.0 mm
07:05 45.3 °F /  7.4 °C 16.3 °F /  -8.7 °C 30.2 in /  1023.9 hPa East 2 mph /  3.2 km/h 2 mph /  3.2 km/h 31 % 0 in /  0.0 mm
07:10 45.3 °F /  7.4 °C 16.3 °F /  -8.7 °C 30.2 in /  1023.9 hPa East 2 mph /  3.2 km/h 2 mph /  3.2 km/h 31 % 0 in /  0.0 mm
07:15 45.3 °F /  7.4 °C 16.3 °F /  -8.7 °C 30.2 in /  1023.9 hPa East 2 mph /  3.2 km/h 2 mph /  3.2 km/h 31 % 0 in /  0.0 mm
07:20 45.3 °F /  7.4 °C 16.3 °F /  -8.7 °C 30.2 in /  1023.9 hPa East 2 mph /  3.2 km/h 2 mph /  3.2 km/h 31 % 0 in /  0.0 mm
07:25 45.3 °F /  7.4 °C 16.3 °F /  -8.7 °C 30.2 in /  1023.9 hPa East 2 mph /  3.2 km/h 2 mph /  3.2 km/h 31 % 0 in /  0.0 mm
07:30 45.3 °F /  7.4 °C 16.3 °F /  -8.7 °C 30.2 in /  1023.9 hPa East 2 mph /  3.2 km/h 2 mph /  3.2 km/h 31 % 0 in /  0.0 mm
07:35 45.3 °F /  7.4 °C 16.3 °F /  -8.7 °C 30.2 in /  1023.9 hPa East 2 mph /  3.2 km/h 2 mph /  3.2 km/h 31 % 0 in /  0.0 mm
07:40 45.3 °F /  7.4 °C 16.3 °F /  -8.7 °C 30.2 in /  1023.9 hPa East 2 mph /  3.2 km/h 2 mph /  3.2 km/h 31 % 0 in /  0.0 mm
07:45 45.3 °F /  7.4 °C 16.3 °F /  -8.7 °C 30.2 in /  1023.9 hPa East 2 mph /  3.2 km/h 2 mph /  3.2 km/h 31 % 0 in /  0.0 mm
07:50 45.3 °F /  7.4 °C 16.3 °F /  -8.7 °C 30.2 in /  1023.9 hPa East 2 mph /  3.2 km/h 2 mph /  3.2 km/h 31 % 0 in /  0.0 mm
07:55 45.3 °F /  7.4 °C 16.3 °F /  -8.7 °C 30.2 in /  1023.9 hPa East 2 mph /  3.2 km/h 2 mph /  3.2 km/h 31 % 0 in /  0.0 mm
08:00 45.3 °F /  7.4 °C 16.3 °F /  -8.7 °C 30.2 in /  1023.9 hPa East 2 mph /  3.2 km/h 2 mph /  3.2 km/h 31 % 0 in /  0.0 mm
08:05 45.3 °F /  7.4 °C 16.3 °F /  -8.7 °C 30.2 in /  1023.9 hPa East 2 mph /  3.2 km/h 2 mph /  3.2 km/h 31 % 0 in /  0.0 mm
08:10 45.3 °F /  7.4 °C 16.3 °F /  -8.7 °C 30.2 in /  1023.9 hPa East 2 mph /  3.2 km/h 2 mph /  3.2 km/h 31 % 0 in /  0.0 mm
08:15 45.3 °F /  7.4 °C 16.3 °F /  -8.7 °C 30.2 in /  1023.9 hPa East 2 mph /  3.2 km/h 2 mph /  3.2 km/h 31 % 0 in /  0.0 mm
08:20 45.3 °F /  7.4 °C 16.3 °F /  -8.7 °C 30.2 in /  1023.9 hPa East 2 mph /  3.2 km/h 2 mph /  3.2 km/h 31 % 0 in /  0.0 mm
08:25 45.3 °F /  7.4 °C 16.3 °F /  -8.7 °C 30.2 in /  1023.9 hPa East 2 mph /  3.2 km/h 2 mph /  3.2 km/h 31 % 0 in /  0.0 mm
08:30 45.3 °F /  7.4 °C 16.3 °F /  -8.7 °C 30.2 in /  1023.9 hPa East 2 mph /  3.2 km/h 2 mph /  3.2 km/h 31 % 0 in /  0.0 mm
08:35 45.3 °F /  7.4 °C 16.3 °F /  -8.7 °C 30.2 in /  1023.9 hPa East 2 mph /  3.2 km/h 2 mph /  3.2 km/h 31 % 0 in /  0.0 mm
08:40 45.3 °F /  7.4 °C 16.3 °F /  -8.7 °C 30.2 in /  1023.9 hPa East 2 mph /  3.2 km/h 2 mph /  3.2 km/h 31 % 0 in /  0.0 mm
08:45 45.3 °F /  7.4 °C 16.3 °F /  -8.7 °C 30.2 in /  1023.9 hPa East 2 mph /  3.2 km/h 2 mph /  3.2 km/h 31 % 0 in /  0.0 mm
08:50 45.3 °F /  7.4 °C 16.3 °F /  -8.7 °C 30.2 in /  1023.9 hPa East 2 mph /  3.2 km/h 2 mph /  3.2 km/h 31 % 0 in /  0.0 mm
08:55 45.3 °F /  7.4 °C 16.3 °F /  -8.7 °C 30.2 in /  1023.9 hPa East 2 mph /  3.2 km/h 2 mph /  3.2 km/h 31 % 0 in /  0.0 mm
09:00 45.3 °F /  7.4 °C 16.3 °F /  -8.7 °C 30.2 in /  1023.9 hPa East 2 mph /  3.2 km/h 2 mph /  3.2 km/h 31 % 0 in /  0.0 mm
09:05 45.3 °F /  7.4 °C 16.3 °F /  -8.7 °C 30.2 in /  1023.9 hPa East 2 mph /  3.2 km/h 2 mph /  3.2 km/h 31 % 0 in /  0.0 mm
09:10 45.3 °F /  7.4 °C 16.3 °F /  -8.7 °C 30.2 in /  1023.9 hPa East 2 mph /  3.2 km/h 2 mph /  3.2 km/h 31 % 0 in /  0.0 mm
09:15 45.3 °F /  7.4 °C 16.3 °F /  -8.7 °C 30.2 in /  1023.9 hPa East 2 mph /  3.2 km/h 2 mph /  3.2 km/h 31 % 0 in /  0.0 mm
09:20 45.3 °F /  7.4 °C 16.3 °F /  -8.7 °C 30.2 in /  1023.9 hPa East 2 mph /  3.2 km/h 2 mph /  3.2 km/h 31 % 0 in /  0.0 mm
09:25 45.3 °F /  7.4 °C 16.3 °F /  -8.7 °C 30.2 in /  1023.9 hPa East 2 mph /  3.2 km/h 2 mph /  3.2 km/h 31 % 0 in /  0.0 mm
09:30 45.3 °F /  7.4 °C 16.3 °F /  -8.7 °C 30.2 in /  1023.9 hPa East 2 mph /  3.2 km/h 2 mph /  3.2 km/h 31 % 0 in /  0.0 mm
09:35 45.3 °F /  7.4 °C 16.3 °F /  -8.7 °C 30.2 in /  1023.9 hPa East 2 mph /  3.2 km/h 2 mph /  3.2 km/h 31 % 0 in /  0.0 mm
09:40 45.3 °F /  7.4 °C 16.3 °F /  -8.7 °C 30.2 in /  1023.9 hPa East 2 mph /  3.2 km/h 2 mph /  3.2 km/h 31 % 0 in /  0.0 mm
09:45 45.3 °F /  7.4 °C 16.3 °F /  -8.7 °C 30.2 in /  1023.9 hPa East 2 mph /  3.2 km/h 2 mph /  3.2 km/h 31 % 0 in /  0.0 mm
09:50 45.3 °F /  7.4 °C 16.3 °F /  -8.7 °C 30.2 in /  1023.9 hPa East 2 mph /  3.2 km/h 2 mph /  3.2 km/h 31 % 0 in /  0.0 mm
09:55 45.3 °F /  7.4 °C 16.3 °F /  -8.7 °C 30.2 in /  1023.9 hPa East 2 mph /  3.2 km/h 2 mph /  3.2 km/h 31 % 0 in /  0.0 mm
10:00 45.3 °F /  7.4 °C 16.3 °F /  -8.7 °C 30.2 in /  1023.9 hPa East 2 mph /  3.2 km/h 2 mph /  3.2 km/h 31 % 0 in /  0.0 mm
10:05 45.3 °F /  7.4 °C 16.3 °F /  -8.7 °C 30.2 in /  1023.9 hPa East 2 mph /  3.2 km/h 2 mph /  3.2 km/h 31 % 0 in /  0.0 mm
10:10 45.3 °F /  7.4 °C 16.3 °F /  -8.7 °C 30.2 in /  1023.9 hPa East 2 mph /  3.2 km/h 2 mph /  3.2 km/h 31 % 0 in /  0.0 mm
10:15 45.3 °F /  7.4 °C 16.3 °F /  -8.7 °C 30.2 in /  1023.9 hPa East 2 mph /  3.2 km/h 2 mph /  3.2 km/h 31 % 0 in /  0.0 mm
10:20 45.3 °F /  7.4 °C 16.3 °F /  -8.7 °C 30.2 in /  1023.9 hPa East 2 mph /  3.2 km/h 2 mph /  3.2 km/h 31 % 0 in /  0.0 mm
10:25 45.3 °F /  7.4 °C 16.3 °F /  -8.7 °C 30.2 in /  1023.9 hPa East 2 mph /  3.2 km/h 2 mph /  3.2 km/h 31 % 0 in /  0.0 mm
10:30 45.3 °F /  7.4 °C 16.3 °F /  -8.7 °C 30.2 in /  1023.9 hPa East 2 mph /  3.2 km/h 2 mph /  3.2 km/h 31 % 0 in /  0.0 mm
10:35 45.3 °F /  7.4 °C 16.3 °F /  -8.7 °C 30.2 in /  1023.9 hPa East 2 mph /  3.2 km/h 2 mph /  3.2 km/h 31 % 0 in /  0.0 mm
10:40 45.3 °F /  7.4 °C 16.3 °F /  -8.7 °C 30.2 in /  1023.9 hPa East 2 mph /  3.2 km/h 2 mph /  3.2 km/h 31 % 0 in /  0.0 mm
10:45 45.3 °F /  7.4 °C 16.3 °F /  -8.7 °C 30.2 in /  1023.9 hPa East 2 mph /  3.2 km/h 2 mph /  3.2 km/h 31 % 0 in /  0.0 mm
10:50 45.3 °F /  7.4 °C 16.3 °F /  -8.7 °C 30.2 in /  1023.9 hPa East 2 mph /  3.2 km/h 2 mph /  3.2 km/h 31 % 0 in /  0.0 mm
10:55 45.3 °F /  7.4 °C 16.3 °F /  -8.7 °C 30.2 in /  1023.9 hPa East 2 mph /  3.2 km/h 2 mph /  3.2 km/h 31 % 0 in /  0.0 mm
11:00 45.3 °F /  7.4 °C 16.3 °F /  -8.7 °C 30.2 in /  1023.9 hPa East 2 mph /  3.2 km/h 2 mph /  3.2 km/h 31 % 0 in /  0.0 mm
11:05 45.3 °F /  7.4 °C 16.3 °F /  -8.7 °C 30.2 in /  1023.9 hPa East 2 mph /  3.2 km/h 2 mph /  3.2 km/h 31 % 0 in /  0.0 mm
11:10 45.3 °F /  7.4 °C 16.3 °F /  -8.7 °C 30.2 in /  1023.9 hPa East 2 mph /  3.2 km/h 2 mph /  3.2 km/h 31 % 0 in /  0.0 mm
11:15 45.3 °F /  7.4 °C 16.3 °F /  -8.7 °C 30.2 in /  1023.9 hPa East 2 mph /  3.2 km/h 2 mph /  3.2 km/h 31 % 0 in /  0.0 mm
11:20 45.3 °F /  7.4 °C 16.3 °F /  -8.7 °C 30.2 in /  1023.9 hPa East 2 mph /  3.2 km/h 2 mph /  3.2 km/h 31 % 0 in /  0.0 mm
11:25 45.3 °F /  7.4 °C 16.3 °F /  -8.7 °C 30.2 in /  1023.9 hPa East 2 mph /  3.2 km/h 2 mph /  3.2 km/h 31 % 0 in /  0.0 mm
11:30 45.3 °F /  7.4 °C 16.3 °F /  -8.7 °C 30.2 in /  1023.9 hPa East 2 mph /  3.2 km/h 2 mph /  3.2 km/h 31 % 0 in /  0.0 mm
11:35 45.3 °F /  7.4 °C 16.3 °F /  -8.7 °C 30.2 in /  1023.9 hPa East 2 mph /  3.2 km/h 2 mph /  3.2 km/h 31 % 0 in /  0.0 mm
11:40 45.3 °F /  7.4 °C 16.3 °F /  -8.7 °C 30.2 in /  1023.9 hPa East 2 mph /  3.2 km/h 2 mph /  3.2 km/h 31 % 0 in /  0.0 mm
11:45 45.3 °F /  7.4 °C 16.3 °F /  -8.7 °C 30.2 in /  1023.9 hPa East 2 mph /  3.2 km/h 2 mph /  3.2 km/h 31 % 0 in /  0.0 mm
11:50 45.3 °F /  7.4 °C 16.3 °F /  -8.7 °C 30.2 in /  1023.9 hPa East 2 mph /  3.2 km/h 2 mph /  3.2 km/h 31 % 0 in /  0.0 mm
11:55 45.3 °F /  7.4 °C 16.3 °F /  -8.7 °C 30.2 in /  1023.9 hPa East 2 mph /  3.2 km/h 2 mph /  3.2 km/h 31 % 0 in /  0.0 mm
12:00 45.3 °F /  7.4 °C 16.3 °F /  -8.7 °C 30.2 in /  1023.9 hPa East 2 mph /  3.2 km/h 2 mph /  3.2 km/h 31 % 0 in /  0.0 mm
12:05 45.3 °F /  7.4 °C 16.3 °F /  -8.7 °C 30.2 in /  1023.9 hPa East 2 mph /  3.2 km/h 2 mph /  3.2 km/h 31 % 0 in /  0.0 mm
12:10 45.3 °F /  7.4 °C 16.3 °F /  -8.7 °C 30.2 in /  1023.9 hPa East 2 mph /  3.2 km/h 2 mph /  3.2 km/h 31 % 0 in /  0.0 mm
12:15 45.3 °F /  7.4 °C 16.3 °F /  -8.7 °C 30.2 in /  1023.9 hPa East 2 mph /  3.2 km/h 2 mph /  3.2 km/h 31 % 0 in /  0.0 mm
12:20 45.3 °F /  7.4 °C 16.3 °F /  -8.7 °C 30.2 in /  1023.9 hPa East 2 mph /  3.2 km/h 2 mph /  3.2 km/h 31 % 0 in /  0.0 mm
12:25 45.3 °F /  7.4 °C 16.3 °F /  -8.7 °C 30.2 in /  1023.9 hPa East 2 mph /  3.2 km/h 2 mph /  3.2 km/h 31 % 0 in /  0.0 mm
12:30 45.3 °F /  7.4 °C 16.3 °F /  -8.7 °C 30.2 in /  1023.9 hPa East 2 mph /  3.2 km/h 2 mph /  3.2 km/h 31 % 0 in /  0.0 mm
12:35 45.3 °F /  7.4 °C 16.3 °F /  -8.7 °C 30.2 in /  1023.9 hPa East 2 mph /  3.2 km/h 2 mph /  3.2 km/h 31 % 0 in /  0.0 mm
12:40 45.3 °F /  7.4 °C 16.3 °F /  -8.7 °C 30.2 in /  1023.9 hPa East 2 mph /  3.2 km/h 2 mph /  3.2 km/h 31 % 0 in /  0.0 mm
12:45 45.3 °F /  7.4 °C 16.3 °F /  -8.7 °C 30.2 in /  1023.9 hPa East 2 mph /  3.2 km/h 2 mph /  3.2 km/h 31 % 0 in /  0.0 mm
12:55 45.3 °F /  7.4 °C 16.3 °F /  -8.7 °C 30.2 in /  1023.9 hPa East 2 mph /  3.2 km/h 2 mph /  3.2 km/h 31 % 0 in /  0.0 mm
13:00 45.3 °F /  7.4 °C 16.3 °F /  -8.7 °C 30.2 in /  1023.9 hPa East 2 mph /  3.2 km/h 2 mph /  3.2 km/h 31 % 0 in /  0.0 mm
13:15 46.2 °F /  7.9 °C 30.6 °F /  -0.8 °C 30.6 in /  1035.8 hPa NNE 3.6 mph /  5.8 km/h 3.6 mph /  5.8 km/h 54 % 0 in /  0.0 mm
13:20 46.6 °F /  8.1 °C 30.7 °F /  -0.7 °C 30.6 in /  1035.8 hPa NE 5.8 mph /  9.3 km/h 5.8 mph /  9.3 km/h 54 % 0 in /  0.0 mm
13:25 46.8 °F /  8.2 °C 30.9 °F /  -0.6 °C 30.6 in /  1035.8 hPa ENE 2.6 mph /  4.2 km/h 2.6 mph /  4.2 km/h 54 % 0 in /  0.0 mm
13:30 47.3 °F /  8.5 °C 31.5 °F /  -0.3 °C 30.6 in /  1035.8 hPa NNE 2.9 mph /  4.7 km/h 2.9 mph /  4.7 km/h 54 % 0 in /  0.0 mm
13:35 47.5 °F /  8.6 °C 31.6 °F /  -0.2 °C 30.6 in /  1035.8 hPa ESE 5.8 mph /  9.3 km/h 5.8 mph /  9.3 km/h 54 % 0 in /  0.0 mm
13:40 47.7 °F /  8.7 °C 31.8 °F /  -0.1 °C 30.6 in /  1035.8 hPa ENE 3.5 mph /  5.6 km/h 3.5 mph /  5.6 km/h 54 % 0 in /  0.0 mm
13:45 47.7 °F /  8.7 °C 31.5 °F /  -0.3 °C 30.6 in /  1034.8 hPa NNE 3.5 mph /  5.6 km/h 3.5 mph /  5.6 km/h 53 % 0 in /  0.0 mm
13:50 47.7 °F /  8.7 °C 31.5 °F /  -0.3 °C 30.6 in /  1034.8 hPa ENE 2.3 mph /  3.7 km/h 2.3 mph /  3.7 km/h 53 % 0 in /  0.0 mm
13:55 47.8 °F /  8.8 °C 31.5 °F /  -0.3 °C 30.6 in /  1034.8 hPa WNW 2.4 mph /  3.9 km/h 2.4 mph /  3.9 km/h 53 % 0 in /  0.0 mm
14:00 48 °F /  8.9 °C 31.6 °F /  -0.2 °C 30.6 in /  1034.8 hPa NNE 4.6 mph /  7.4 km/h 4.6 mph /  7.4 km/h 53 % 0 in /  0.0 mm
14:05 48.2 °F /  9.0 °C 31.8 °F /  -0.1 °C 30.6 in /  1034.8 hPa WNW 2.3 mph /  3.7 km/h 2.3 mph /  3.7 km/h 53 % 0 in /  0.0 mm
14:10 48.2 °F /  9.0 °C 31.8 °F /  -0.1 °C 30.6 in /  1034.8 hPa NNE 2.3 mph /  3.7 km/h 2.3 mph /  3.7 km/h 53 % 0 in /  0.0 mm
14:15 48.6 °F /  9.2 °C 32.2 °F /  0.1 °C 30.6 in /  1034.8 hPa North 2.9 mph /  4.7 km/h 2.9 mph /  4.7 km/h 53 % 0 in /  0.0 mm
14:20 48.6 °F /  9.2 °C 32.2 °F /  0.1 °C 30.6 in /  1034.8 hPa NNE 2.3 mph /  3.7 km/h 2.3 mph /  3.7 km/h 53 % 0 in /  0.0 mm
14:25 48.7 °F /  9.3 °C 32.4 °F /  0.2 °C 30.6 in /  1034.8 hPa ENE 2.4 mph /  3.9 km/h 2.4 mph /  3.9 km/h 53 % 0 in /  0.0 mm
14:30 48.9 °F /  9.4 °C 32.5 °F /  0.3 °C 30.6 in /  1034.8 hPa NNE 1.6 mph /  2.6 km/h 1.6 mph /  2.6 km/h 53 % 0 in /  0.0 mm
14:35 48.9 °F /  9.4 °C 32.5 °F /  0.3 °C 30.6 in /  1034.8 hPa North 2.3 mph /  3.7 km/h 2.3 mph /  3.7 km/h 53 % 0 in /  0.0 mm
14:40 48.9 °F /  9.4 °C 32.5 °F /  0.3 °C 30.6 in /  1034.8 hPa ENE 2.3 mph /  3.7 km/h 2.3 mph /  3.7 km/h 53 % 0 in /  0.0 mm
14:45 48.9 °F /  9.4 °C 32 °F /  0.0 °C 30.6 in /  1034.8 hPa NE 4.6 mph /  7.4 km/h 4.6 mph /  7.4 km/h 52 % 0 in /  0.0 mm
14:50 48.9 °F /  9.4 °C 32 °F /  0.0 °C 30.6 in /  1034.8 hPa NNE 2.3 mph /  3.7 km/h 2.3 mph /  3.7 km/h 52 % 0 in /  0.0 mm
14:55 49.3 °F /  9.6 °C 32.4 °F /  0.2 °C 30.6 in /  1034.8 hPa NNW 1.4 mph /  2.3 km/h 1.4 mph /  2.3 km/h 52 % 0 in /  0.0 mm
15:00 49.3 °F /  9.6 °C 32.4 °F /  0.2 °C 30.6 in /  1034.8 hPa NNW 1.4 mph /  2.3 km/h 1.4 mph /  2.3 km/h 52 % 0 in /  0.0 mm
15:05 49.5 °F /  9.7 °C 32.5 °F /  0.3 °C 30.6 in /  1034.8 hPa North 2.3 mph /  3.7 km/h 2.3 mph /  3.7 km/h 52 % 0 in /  0.0 mm
15:10 49.6 °F /  9.8 °C 32.7 °F /  0.4 °C 30.6 in /  1034.8 hPa NE 2.3 mph /  3.7 km/h 2.3 mph /  3.7 km/h 52 % 0 in /  0.0 mm
15:15 49.6 °F /  9.8 °C 32.7 °F /  0.4 °C 30.5 in /  1033.7 hPa NE 2.3 mph /  3.7 km/h 2.3 mph /  3.7 km/h 52 % 0 in /  0.0 mm
15:20 49.5 °F /  9.7 °C 32.5 °F /  0.3 °C 30.5 in /  1033.7 hPa NNW 2.3 mph /  3.7 km/h 2.3 mph /  3.7 km/h 52 % 0 in /  0.0 mm
15:25 49.6 °F /  9.8 °C 32.7 °F /  0.4 °C 30.5 in /  1033.7 hPa NNE 2.9 mph /  4.7 km/h 2.9 mph /  4.7 km/h 52 % 0 in /  0.0 mm
15:30 49.6 °F /  9.8 °C 32.7 °F /  0.4 °C 30.5 in /  1032.7 hPa NE 2.3 mph /  3.7 km/h 2.3 mph /  3.7 km/h 52 % 0 in /  0.0 mm
15:35 49.8 °F /  9.9 °C 32.9 °F /  0.5 °C 30.5 in /  1032.7 hPa NE 1.2 mph /  1.9 km/h 1.2 mph /  1.9 km/h 52 % 0 in /  0.0 mm
15:40 49.8 °F /  9.9 °C 32.9 °F /  0.5 °C 30.5 in /  1032.7 hPa NE 2.6 mph /  4.2 km/h 2.6 mph /  4.2 km/h 52 % 0 in /  0.0 mm
15:45 49.8 °F /  9.9 °C 32.9 °F /  0.5 °C 30.5 in /  1033.7 hPa NW 2.3 mph /  3.7 km/h 2.3 mph /  3.7 km/h 52 % 0 in /  0.0 mm
15:50 50 °F /  10.0 °C 33.1 °F /  0.6 °C 30.5 in /  1033.7 hPa NNW 1.2 mph /  1.9 km/h   52 % 0 in /  0.0 mm
15:51 50 °F /  10.0 °C 33.1 °F /  0.6 °C 30.5 in /  1033.7 hPa NNW 1.2 mph /  1.9 km/h   52 % 0 in /  0.0 mm
15:56 49.8 °F /  9.9 °C 32.9 °F /  0.5 °C 30.5 in /  1033.7 hPa NNW 1.6 mph /  2.6 km/h 1.6 mph /  2.6 km/h 52 % 0 in /  0.0 mm
16:01 50 °F /  10.0 °C 33.1 °F /  0.6 °C 30.5 in /  1033.7 hPa Calm     52 % 0 in /  0.0 mm
16:06 50 °F /  10.0 °C 33.1 °F /  0.6 °C 30.5 in /  1033.7 hPa ENE 1.2 mph /  1.9 km/h   52 % 0 in /  0.0 mm
16:11 49.8 °F /  9.9 °C 32.9 °F /  0.5 °C 30.5 in /  1033.7 hPa North 1.2 mph /  1.9 km/h 1.2 mph /  1.9 km/h 52 % 0 in /  0.0 mm
16:16 49.8 °F /  9.9 °C 32.9 °F /  0.5 °C 30.5 in /  1033.7 hPa NNE 1.4 mph /  2.3 km/h 1.4 mph /  2.3 km/h 52 % 0 in /  0.0 mm
16:21 49.8 °F /  9.9 °C 32.9 °F /  0.5 °C 30.5 in /  1033.7 hPa Calm     52 % 0 in /  0.0 mm
16:26 49.8 °F /  9.9 °C 32.9 °F /  0.5 °C 30.5 in /  1033.7 hPa NNW 1.6 mph /  2.6 km/h 1.6 mph /  2.6 km/h 52 % 0 in /  0.0 mm
16:31 49.8 °F /  9.9 °C 32.9 °F /  0.5 °C 30.5 in /  1033.7 hPa NNE 1.2 mph /  1.9 km/h   52 % 0 in /  0.0 mm
16:36 49.6 °F /  9.8 °C 32.7 °F /  0.4 °C 30.5 in /  1033.7 hPa NNE 1.2 mph /  1.9 km/h 1.2 mph /  1.9 km/h 52 % 0 in /  0.0 mm
16:41 49.5 °F /  9.7 °C 32.5 °F /  0.3 °C 30.5 in /  1033.7 hPa NNW 1.2 mph /  1.9 km/h   52 % 0 in /  0.0 mm
16:46 49.5 °F /  9.7 °C 32.5 °F /  0.3 °C 30.5 in /  1033.7 hPa Calm     52 % 0 in /  0.0 mm
16:51 49.5 °F /  9.7 °C 32.5 °F /  0.3 °C 30.5 in /  1033.7 hPa North 1.6 mph /  2.6 km/h 1.6 mph /  2.6 km/h 52 % 0 in /  0.0 mm
16:56 49.3 °F /  9.6 °C 32.4 °F /  0.2 °C 30.5 in /  1033.7 hPa NNE 1.2 mph /  1.9 km/h 1.2 mph /  1.9 km/h 52 % 0 in /  0.0 mm
17:01 48.9 °F /  9.4 °C 32 °F /  0.0 °C 30.5 in /  1033.7 hPa Calm     52 % 0 in /  0.0 mm
17:06 48.7 °F /  9.3 °C 31.8 °F /  -0.1 °C 30.5 in /  1033.7 hPa NW 1.2 mph /  1.9 km/h   52 % 0 in /  0.0 mm
17:11 48.6 °F /  9.2 °C 31.6 °F /  -0.2 °C 30.5 in /  1033.7 hPa NW 1.2 mph /  1.9 km/h   52 % 0 in /  0.0 mm
17:16 48.4 °F /  9.1 °C 31.5 °F /  -0.3 °C 30.5 in /  1033.7 hPa Calm     52 % 0 in /  0.0 mm
17:21 48 °F /  8.9 °C 31.3 °F /  -0.4 °C 30.5 in /  1033.7 hPa Calm     52 % 0 in /  0.0 mm
17:26 47.8 °F /  8.8 °C 30.9 °F /  -0.6 °C 30.5 in /  1033.7 hPa WNW 1.2 mph /  1.9 km/h   52 % 0 in /  0.0 mm
17:31 47.5 °F /  8.6 °C 30.7 °F /  -0.7 °C 30.5 in /  1033.7 hPa Calm     52 % 0 in /  0.0 mm
17:36 47.3 °F /  8.5 °C 30.6 °F /  -0.8 °C 30.5 in /  1033.7 hPa Calm     52 % 0 in /  0.0 mm
17:41 47.1 °F /  8.4 °C 30.4 °F /  -0.9 °C 30.5 in /  1033.7 hPa Calm     52 % 0 in /  0.0 mm
17:46 46.9 °F /  8.3 °C 30.2 °F /  -1.0 °C 30.5 in /  1033.7 hPa NW 1.2 mph /  1.9 km/h   52 % 0 in /  0.0 mm
17:51 46.8 °F /  8.2 °C 30 °F /  -1.1 °C 30.5 in /  1033.7 hPa NW 1.4 mph /  2.3 km/h   52 % 0 in /  0.0 mm
17:56 46.6 °F /  8.1 °C 29.8 °F /  -1.2 °C 30.5 in /  1033.7 hPa SW 1.2 mph /  1.9 km/h 1.2 mph /  1.9 km/h 52 % 0 in /  0.0 mm
18:01 46.4 °F /  8.0 °C 29.7 °F /  -1.3 °C 30.5 in /  1033.7 hPa Calm     52 % 0 in /  0.0 mm
18:06 46.2 °F /  7.9 °C 29.5 °F /  -1.4 °C 30.5 in /  1033.7 hPa Calm     52 % 0 in /  0.0 mm
18:11 46 °F /  7.8 °C 29.5 °F /  -1.4 °C 30.5 in /  1033.7 hPa Calm     52 % 0 in /  0.0 mm
18:16 46.2 °F /  7.9 °C 29.5 °F /  -1.4 °C 30.5 in /  1033.7 hPa Calm     52 % 0 in /  0.0 mm
18:21 46 °F /  7.8 °C 29.5 °F /  -1.4 °C 30.5 in /  1033.7 hPa Calm     52 % 0 in /  0.0 mm
18:25 36.3 °F /  2.4 °C 23.7 °F /  -4.6 °C 30.6 in /  1034.8 hPa Calm     60 % 0 in /  0.0 mm
18:26 46 °F /  7.8 °C 29.5 °F /  -1.4 °C 30.5 in /  1033.7 hPa WSW 1.6 mph /  2.6 km/h 1.6 mph /  2.6 km/h 52 % 0 in /  0.0 mm
18:31 46 °F /  7.8 °C 29.5 °F /  -1.4 °C 30.5 in /  1032.7 hPa Calm     52 % 0 in /  0.0 mm
18:35 36.3 °F /  2.4 °C 23.7 °F /  -4.6 °C 30.6 in /  1034.8 hPa Calm     60 % 0 in /  0.0 mm
18:36 45.9 °F /  7.7 °C 29.1 °F /  -1.6 °C 30.5 in /  1032.7 hPa WSW 1.4 mph /  2.3 km/h   52 % 0 in /  0.0 mm
18:41 45.7 °F /  7.6 °C 28.9 °F /  -1.7 °C 30.5 in /  1032.7 hPa Calm     52 % 0 in /  0.0 mm
18:45 36.3 °F /  2.4 °C 24.1 °F /  -4.4 °C 30.6 in /  1034.8 hPa Calm     61 % 0 in /  0.0 mm
18:46 45.3 °F /  7.4 °C 28.8 °F /  -1.8 °C 30.5 in /  1033.7 hPa WSW 1.2 mph /  1.9 km/h   52 % 0 in /  0.0 mm
18:51 45.1 °F /  7.3 °C 28.6 °F /  -1.9 °C 30.5 in /  1033.7 hPa South 2.4 mph /  3.9 km/h 2.4 mph /  3.9 km/h 52 % 0 in /  0.0 mm
18:55 36 °F /  2.2 °C 23.7 °F /  -4.6 °C 30.6 in /  1034.8 hPa Calm     61 % 0 in /  0.0 mm
18:56 45 °F /  7.2 °C 28.4 °F /  -2.0 °C 30.5 in /  1033.7 hPa Calm     52 % 0 in /  0.0 mm
19:01 44.8 °F /  7.1 °C 28.2 °F /  -2.1 °C 30.5 in /  1033.7 hPa SW 1.2 mph /  1.9 km/h   52 % 0 in /  0.0 mm
19:05 35.8 °F /  2.1 °C 23.5 °F /  -4.7 °C 30.6 in /  1034.8 hPa Calm     61 % 0 in /  0.0 mm
19:06 44.8 °F /  7.1 °C 28.2 °F /  -2.1 °C 30.5 in /  1033.7 hPa SW 2.3 mph /  3.7 km/h 2.3 mph /  3.7 km/h 52 % 0 in /  0.0 mm
19:11 45 °F /  7.2 °C 28.4 °F /  -2.0 °C 30.5 in /  1033.7 hPa West 2.3 mph /  3.7 km/h 2.3 mph /  3.7 km/h 52 % 0 in /  0.0 mm
19:15 35.6 °F /  2.0 °C 23.5 °F /  -4.7 °C 30.6 in /  1034.8 hPa Calm     61 % 0 in /  0.0 mm
19:16 45 °F /  7.2 °C 28.4 °F /  -2.0 °C 30.5 in /  1033.7 hPa West 2.3 mph /  3.7 km/h 2.3 mph /  3.7 km/h 52 % 0 in /  0.0 mm
19:21 45 °F /  7.2 °C 28.4 °F /  -2.0 °C 30.5 in /  1033.7 hPa WSW 2.3 mph /  3.7 km/h 2.3 mph /  3.7 km/h 52 % 0 in /  0.0 mm
19:25 35.8 °F /  2.1 °C 24.1 °F /  -4.4 °C 30.6 in /  1034.8 hPa Calm     62 % 0 in /  0.0 mm
19:26 44.8 °F /  7.1 °C 27.7 °F /  -2.4 °C 30.5 in /  1033.7 hPa West 2.3 mph /  3.7 km/h 2.3 mph /  3.7 km/h 51 % 0 in /  0.0 mm
19:31 44.6 °F /  7.0 °C 27.7 °F /  -2.4 °C 30.6 in /  1034.8 hPa WSW 2.3 mph /  3.7 km/h 2.3 mph /  3.7 km/h 51 % 0 in /  0.0 mm
19:35 35.4 °F /  1.9 °C 23.7 °F /  -4.6 °C 30.6 in /  1034.8 hPa Calm     62 % 0 in /  0.0 mm
19:36 44.4 °F /  6.9 °C 27.3 °F /  -2.6 °C 30.6 in /  1034.8 hPa SW 2.3 mph /  3.7 km/h 2.3 mph /  3.7 km/h 51 % 0 in /  0.0 mm
19:41 44.1 °F /  6.7 °C 27.1 °F /  -2.7 °C 30.6 in /  1034.8 hPa SW 2.3 mph /  3.7 km/h 2.3 mph /  3.7 km/h 51 % 0 in /  0.0 mm
19:45 35.2 °F /  1.8 °C 23.5 °F /  -4.7 °C 30.6 in /  1034.8 hPa Calm     62 % 0 in /  0.0 mm
19:46 43.7 °F /  6.5 °C 27.1 °F /  -2.7 °C 30.5 in /  1033.7 hPa Calm     52 % 0 in /  0.0 mm
19:51 43.5 °F /  6.4 °C 27 °F /  -2.8 °C 30.5 in /  1033.7 hPa Calm     52 % 0 in /  0.0 mm
19:55 35.1 °F /  1.7 °C 23.4 °F /  -4.8 °C 30.5 in /  1033.7 hPa Calm     62 % 0 in /  0.0 mm
19:56 43.3 °F /  6.3 °C 27 °F /  -2.8 °C 30.5 in /  1033.7 hPa Calm     52 % 0 in /  0.0 mm
20:01 43.2 °F /  6.2 °C 26.8 °F /  -2.9 °C 30.5 in /  1033.7 hPa Calm     52 % 0 in /  0.0 mm
20:05 34.9 °F /  1.6 °C 23.2 °F /  -4.9 °C 30.6 in /  1034.8 hPa Calm     62 % 0 in /  0.0 mm
20:06 43.2 °F /  6.2 °C 26.8 °F /  -2.9 °C 30.5 in /  1033.7 hPa WNW 1.4 mph /  2.3 km/h 1.4 mph /  2.3 km/h 52 % 0 in /  0.0 mm
20:11 43 °F /  6.1 °C 26.4 °F /  -3.1 °C 30.5 in /  1033.7 hPa WNW 1.4 mph /  2.3 km/h 1.4 mph /  2.3 km/h 52 % 0 in /  0.0 mm
20:15 34.7 °F /  1.5 °C 23 °F /  -5.0 °C 30.6 in /  1034.8 hPa SSW 1 mph /  1.6 km/h 1 mph /  1.6 km/h 62 % 0 in /  0.0 mm
20:16 43.2 °F /  6.2 °C 26.8 °F /  -2.9 °C 30.6 in /  1034.8 hPa Calm     52 % 0 in /  0.0 mm
20:21 42.8 °F /  6.0 °C 26.4 °F /  -3.1 °C 30.6 in /  1034.8 hPa NNW 1.2 mph /  1.9 km/h 1.2 mph /  1.9 km/h 52 % 0 in /  0.0 mm
20:25 34.5 °F /  1.4 °C 22.8 °F /  -5.1 °C 30.5 in /  1033.7 hPa SSW 1 mph /  1.6 km/h 2 mph /  3.2 km/h 62 % 0 in /  0.0 mm
20:26 42.8 °F /  6.0 °C 26.4 °F /  -3.1 °C 30.6 in /  1034.8 hPa NNE 1.2 mph /  1.9 km/h 1.4 mph /  2.3 km/h 52 % 0 in /  0.0 mm
20:31 42.8 °F /  6.0 °C 26.4 °F /  -3.1 °C 30.6 in /  1034.8 hPa Calm     52 % 0 in /  0.0 mm
20:35 34.3 °F /  1.3 °C 22.6 °F /  -5.2 °C 30.5 in /  1033.7 hPa SW 1 mph /  1.6 km/h 2 mph /  3.2 km/h 62 % 0 in /  0.0 mm
20:36 42.6 °F /  5.9 °C 26.2 °F /  -3.2 °C 30.6 in /  1034.8 hPa NNE 1.2 mph /  1.9 km/h   52 % 0 in /  0.0 mm
20:41 42.6 °F /  5.9 °C 26.2 °F /  -3.2 °C 30.6 in /  1034.8 hPa Calm     52 % 0 in /  0.0 mm
20:45 34.3 °F /  1.3 °C 22.6 °F /  -5.2 °C 30.5 in /  1033.7 hPa Calm   2 mph /  3.2 km/h 62 % 0 in /  0.0 mm
20:46 42.8 °F /  6.0 °C 26.4 °F /  -3.1 °C 30.6 in /  1034.8 hPa Calm     52 % 0 in /  0.0 mm
20:51 43 °F /  6.1 °C 26.4 °F /  -3.1 °C 30.6 in /  1034.8 hPa NNE 1.2 mph /  1.9 km/h   52 % 0 in /  0.0 mm
20:55 34.3 °F /  1.3 °C 23 °F /  -5.0 °C 30.5 in /  1033.7 hPa WSW 2 mph /  3.2 km/h 2 mph /  3.2 km/h 63 % 0 in /  0.0 mm
20:56 43 °F /  6.1 °C 26.4 °F /  -3.1 °C 30.6 in /  1034.8 hPa Calm     52 % 0 in /  0.0 mm
21:01 43 °F /  6.1 °C 27 °F /  -2.8 °C 30.6 in /  1034.8 hPa Calm     53 % 0 in /  0.0 mm
21:05 34.3 °F /  1.3 °C 23 °F /  -5.0 °C 30.5 in /  1033.7 hPa Calm   3 mph /  4.8 km/h 63 % 0 in /  0.0 mm
21:06 43 °F /  6.1 °C 27 °F /  -2.8 °C 30.6 in /  1034.8 hPa NNW 1.6 mph /  2.6 km/h   53 % 0 in /  0.0 mm
21:11 42.8 °F /  6.0 °C 26.8 °F /  -2.9 °C 30.6 in /  1034.8 hPa NNW 1.2 mph /  1.9 km/h   53 % 0 in /  0.0 mm
21:15 34.5 °F /  1.4 °C 23.2 °F /  -4.9 °C 30.5 in /  1033.7 hPa Calm   2 mph /  3.2 km/h 63 % 0 in /  0.0 mm
21:16 42.6 °F /  5.9 °C 26.8 °F /  -2.9 °C 30.6 in /  1034.8 hPa Calm     53 % 0 in /  0.0 mm
21:21 42.3 °F /  5.7 °C 26.2 °F /  -3.2 °C 30.6 in /  1034.8 hPa WNW 2.3 mph /  3.7 km/h 2.3 mph /  3.7 km/h 53 % 0 in /  0.0 mm
21:25 34.2 °F /  1.2 °C 22.8 °F /  -5.1 °C 30.5 in /  1033.7 hPa Calm   1 mph /  1.6 km/h 63 % 0 in /  0.0 mm
21:26 41.7 °F /  5.4 °C 25.9 °F /  -3.4 °C 30.6 in /  1034.8 hPa West 2.3 mph /  3.7 km/h 2.3 mph /  3.7 km/h 53 % 0 in /  0.0 mm
21:31 41.2 °F /  5.1 °C 25.3 °F /  -3.7 °C 30.6 in /  1034.8 hPa WSW 2.3 mph /  3.7 km/h 2.3 mph /  3.7 km/h 53 % 0 in /  0.0 mm
21:35 33.8 °F /  1.0 °C 22.5 °F /  -5.3 °C 30.5 in /  1033.7 hPa Calm   2 mph /  3.2 km/h 63 % 0 in /  0.0 mm
21:36 41.2 °F /  5.1 °C 25.3 °F /  -3.7 °C 30.6 in /  1034.8 hPa SW 2.3 mph /  3.7 km/h 2.3 mph /  3.7 km/h 53 % 0 in /  0.0 mm
21:41 40.8 °F /  4.9 °C 25 °F /  -3.9 °C 30.6 in /  1034.8 hPa WSW 2.3 mph /  3.7 km/h 2.3 mph /  3.7 km/h 53 % 0 in /  0.0 mm
21:45 33.4 °F /  0.8 °C 22.3 °F /  -5.4 °C 30.5 in /  1033.7 hPa Calm   1 mph /  1.6 km/h 63 % 0 in /  0.0 mm
21:46 40.8 °F /  4.9 °C 25 °F /  -3.9 °C 30.6 in /  1034.8 hPa SW 2.3 mph /  3.7 km/h 2.4 mph /  3.9 km/h 53 % 0 in /  0.0 mm
21:51 40.1 °F /  4.5 °C 24.3 °F /  -4.3 °C 30.6 in /  1034.8 hPa SW 2.4 mph /  3.9 km/h 2.4 mph /  3.9 km/h 53 % 0 in /  0.0 mm
21:55 33.3 °F /  0.7 °C 22.5 °F /  -5.3 °C 30.5 in /  1033.7 hPa Calm   1 mph /  1.6 km/h 64 % 0 in /  0.0 mm
21:56 40.1 °F /  4.5 °C 24.3 °F /  -4.3 °C 30.6 in /  1034.8 hPa WSW 2.4 mph /  3.9 km/h 2.4 mph /  3.9 km/h 53 % 0 in /  0.0 mm
22:01 40.1 °F /  4.5 °C 24.3 °F /  -4.3 °C 30.6 in /  1034.8 hPa WSW 2.3 mph /  3.7 km/h 2.3 mph /  3.7 km/h 53 % 0 in /  0.0 mm
22:05 33.3 °F /  0.7 °C 22.5 °F /  -5.3 °C 30.5 in /  1033.7 hPa Calm     64 % 0 in /  0.0 mm
22:06 39.9 °F /  4.4 °C 24.6 °F /  -4.1 °C 30.6 in /  1034.8 hPa Calm     54 % 0 in /  0.0 mm
22:11 39.7 °F /  4.3 °C 24.4 °F /  -4.2 °C 30.6 in /  1034.8 hPa Calm     54 % 0 in /  0.0 mm
22:15 33.3 °F /  0.7 °C 22.5 °F /  -5.3 °C 30.5 in /  1033.7 hPa Calm   1 mph /  1.6 km/h 64 % 0 in /  0.0 mm
22:16 39.9 °F /  4.4 °C 24.6 °F /  -4.1 °C 30.6 in /  1034.8 hPa WSW 1.2 mph /  1.9 km/h 1.4 mph /  2.3 km/h 54 % 0 in /  0.0 mm
22:21 39.9 °F /  4.4 °C 24.6 °F /  -4.1 °C 30.6 in /  1034.8 hPa Calm     54 % 0 in /  0.0 mm
22:25 33.4 °F /  0.8 °C 22.8 °F /  -5.1 °C 30.5 in /  1033.7 hPa Calm   2 mph /  3.2 km/h 65 % 0 in /  0.0 mm
22:26 39.7 °F /  4.3 °C 25 °F /  -3.9 °C 30.6 in /  1034.8 hPa North 1.2 mph /  1.9 km/h   55 % 0 in /  0.0 mm
22:31 39.4 °F /  4.1 °C 24.4 °F /  -4.2 °C 30.6 in /  1034.8 hPa NE 2.3 mph /  3.7 km/h 2.3 mph /  3.7 km/h 55 % 0 in /  0.0 mm
22:35 33.3 °F /  0.7 °C 22.5 °F /  -5.3 °C 30.5 in /  1033.7 hPa Calm     64 % 0 in /  0.0 mm
22:36 39.2 °F /  4.0 °C 24.4 °F /  -4.2 °C 30.6 in /  1034.8 hPa NNE 1.6 mph /  2.6 km/h   55 % 0 in /  0.0 mm
22:41 39.4 °F /  4.1 °C 25 °F /  -3.9 °C 30.6 in /  1034.8 hPa NNE 1.2 mph /  1.9 km/h   56 % 0 in /  0.0 mm
22:45 33.1 °F /  0.6 °C 22.6 °F /  -5.2 °C 30.5 in /  1033.7 hPa Calm     65 % 0 in /  0.0 mm
22:46 39 °F /  3.9 °C 24.3 °F /  -4.3 °C 30.6 in /  1034.8 hPa Calm     55 % 0 in /  0.0 mm
22:51 38.8 °F /  3.8 °C 24.4 °F /  -4.2 °C 30.6 in /  1034.8 hPa Calm     56 % 0 in /  0.0 mm
22:55 32 °F /  0.0 °C 21.2 °F /  -6.0 °C 30.5 in /  1033.7 hPa Calm   2 mph /  3.2 km/h 64 % 0 in /  0.0 mm
22:56 38.8 °F /  3.8 °C 24.4 °F /  -4.2 °C 30.6 in /  1034.8 hPa Calm     56 % 0 in /  0.0 mm
23:01 38.7 °F /  3.7 °C 24.3 °F /  -4.3 °C 30.6 in /  1034.8 hPa Calm     56 % 0 in /  0.0 mm
23:05 32.4 °F /  0.2 °C 21.9 °F /  -5.6 °C 30.5 in /  1033.7 hPa West 1 mph /  1.6 km/h 2 mph /  3.2 km/h 65 % 0 in /  0.0 mm
23:11 38.5 °F /  3.6 °C 24.1 °F /  -4.4 °C 30.6 in /  1034.8 hPa SSW 1.2 mph /  1.9 km/h 1.2 mph /  1.9 km/h 56 % 0 in /  0.0 mm
23:15 32.4 °F /  0.2 °C 21.9 °F /  -5.6 °C 30.5 in /  1033.7 hPa Calm   2 mph /  3.2 km/h 65 % 0 in /  0.0 mm
23:16 38.3 °F /  3.5 °C 24.1 °F /  -4.4 °C 30.6 in /  1034.8 hPa Calm     56 % 0 in /  0.0 mm
23:21 38.1 °F /  3.4 °C 24.3 °F /  -4.3 °C 30.6 in /  1034.8 hPa Calm     57 % 0 in /  0.0 mm
23:25 32.4 °F /  0.2 °C 21.9 °F /  -5.6 °C 30.5 in /  1033.7 hPa Calm   2 mph /  3.2 km/h 65 % 0 in /  0.0 mm
23:26 37.9 °F /  3.3 °C 24.1 °F /  -4.4 °C 30.6 in /  1034.8 hPa Calm     57 % 0 in /  0.0 mm
23:31 37.8 °F /  3.2 °C 23.9 °F /  -4.5 °C 30.6 in /  1034.8 hPa Calm     57 % 0 in /  0.0 mm
23:35 32.2 °F /  0.1 °C 22.1 °F /  -5.5 °C 30.5 in /  1033.7 hPa Calm   1 mph /  1.6 km/h 66 % 0 in /  0.0 mm
23:36 37.8 °F /  3.2 °C 24.3 °F /  -4.3 °C 30.6 in /  1034.8 hPa Calm     58 % 0 in /  0.0 mm
23:45 32 °F /  0.0 °C 21.6 °F /  -5.8 °C 30.5 in /  1033.7 hPa WSW 1 mph /  1.6 km/h 2 mph /  3.2 km/h 65 % 0 in /  0.0 mm
23:46 37.4 °F /  3.0 °C 24.1 °F /  -4.4 °C 30.6 in /  1034.8 hPa SSW 1.2 mph /  1.9 km/h 1.2 mph /  1.9 km/h 58 % 0 in /  0.0 mm
23:51 37.2 °F /  2.9 °C 23.7 °F /  -4.6 °C 30.6 in /  1034.8 hPa Calm     58 % 0 in /  0.0 mm
23:55 32.2 °F /  0.1 °C 21.7 °F /  -5.7 °C 30.5 in /  1033.7 hPa WSW 1 mph /  1.6 km/h 2 mph /  3.2 km/h 65 % 0 in /  0.0 mm
23:56 37 °F /  2.8 °C 23.5 °F /  -4.7 °C 30.6 in /  1034.8 hPa Calm     58 % 0 in /  0.0 mm
Meteo Sesrovires
Elogis d' Weather Underground - 4.25 mb

Guio original per  Jim McMurry - jmcmurry@mwt.net Adaptat per a la plantilla per  Wim van der Kuil - Leuven-Template.eu

Trobareu la nostra informacio del temps tambe a:

Weather Underground

AWEKAS